createdAt,value
2023-04-12T00:00:11.850Z,4.10
2023-04-12T00:02:40.356Z,3.70
2023-04-12T00:05:09.676Z,4.35
2023-04-12T00:07:38.420Z,3.97
2023-04-12T00:10:09.606Z,3.92
2023-04-12T00:12:37.648Z,3.85
2023-04-12T00:17:35.002Z,3.90
2023-04-12T00:20:06.081Z,4.50
2023-04-12T00:22:33.053Z,4.60
2023-04-12T00:25:00.223Z,4.13
2023-04-12T00:27:27.214Z,4.70
2023-04-12T00:29:54.385Z,3.92
2023-04-12T00:32:21.485Z,4.10
2023-04-12T00:34:48.491Z,4.33
2023-04-12T00:37:15.803Z,4.05
2023-04-12T00:39:43.005Z,4.32
2023-04-12T00:42:10.082Z,3.77
2023-04-12T00:44:37.262Z,4.20
2023-04-12T00:47:05.572Z,4.00
2023-04-12T00:49:34.130Z,4.28
2023-04-12T00:52:04.433Z,4.43
2023-04-12T00:54:33.385Z,4.32
2023-04-12T00:57:04.004Z,4.80
2023-04-12T00:59:31.085Z,4.15
2023-04-12T01:01:59.953Z,4.28
2023-04-12T01:04:27.999Z,4.47
2023-04-12T01:10:18.748Z,4.32
2023-04-12T01:12:48.203Z,4.60
2023-04-12T01:15:17.118Z,4.50
2023-04-12T01:18:04.256Z,4.47
2023-04-12T01:20:39.418Z,4.15
2023-04-12T01:23:14.954Z,4.07
2023-04-12T01:25:48.604Z,4.55
2023-04-12T01:28:21.053Z,5.60
2023-04-12T01:30:49.938Z,4.35
2023-04-12T01:33:18.904Z,4.68
2023-04-12T01:35:48.797Z,3.95
2023-04-12T01:38:16.087Z,4.70
2023-04-12T01:40:44.465Z,4.80
2023-04-12T01:43:13.779Z,4.13
2023-04-12T01:45:44.186Z,4.43
2023-04-12T01:48:12.702Z,4.55
2023-04-12T01:50:58.692Z,3.90
2023-04-12T01:53:52.181Z,3.58
2023-04-12T01:56:22.461Z,4.45
2023-04-12T01:58:52.394Z,4.57
2023-04-12T02:01:19.977Z,4.50
2023-04-12T02:03:49.950Z,4.57
2023-04-12T02:06:20.898Z,4.53
2023-04-12T02:08:48.763Z,3.95
2023-04-12T02:11:15.845Z,4.88
2023-04-12T02:13:44.852Z,4.18
2023-04-12T02:16:14.047Z,3.97
2023-04-12T02:18:42.279Z,4.40
2023-04-12T02:21:11.662Z,3.75
2023-04-12T02:23:38.630Z,4.75
2023-04-12T02:26:06.685Z,3.65
2023-04-12T02:28:34.726Z,4.47
2023-04-12T02:31:02.364Z,3.78
2023-04-12T02:33:32.146Z,4.45
2023-04-12T02:36:04.602Z,3.80
2023-04-12T02:38:31.961Z,4.53
2023-04-12T02:41:03.502Z,4.63
2023-04-12T02:43:34.704Z,4.07
2023-04-12T02:46:05.432Z,4.30
2023-04-12T02:48:40.244Z,3.70
2023-04-12T02:51:08.135Z,3.88
2023-04-12T02:53:36.694Z,3.22
2023-04-12T02:56:19.155Z,3.20
2023-04-12T02:58:49.980Z,3.15
2023-04-12T03:01:29.756Z,3.30
2023-04-12T03:04:37.532Z,3.25
2023-04-12T03:07:05.342Z,3.72
2023-04-12T03:09:44.669Z,3.55
2023-04-12T03:12:12.838Z,3.53
2023-04-12T03:14:48.403Z,3.10
2023-04-12T03:17:16.571Z,3.40
2023-04-12T03:19:43.626Z,3.63
2023-04-12T03:22:11.477Z,5.10
2023-04-12T03:24:44.820Z,4.97
2023-04-12T03:27:15.765Z,4.32
2023-04-12T03:29:42.969Z,4.17
2023-04-12T03:32:10.007Z,5.60
2023-04-12T03:34:37.268Z,4.75
2023-04-12T03:37:15.010Z,5.13
2023-04-12T03:39:47.741Z,4.65
2023-04-12T03:42:32.468Z,4.93
2023-04-12T03:45:10.228Z,4.38
2023-04-12T03:47:39.008Z,4.60
2023-04-12T03:52:38.887Z,4.97
2023-04-12T03:55:10.452Z,5.25
2023-04-12T03:57:37.978Z,4.72
2023-04-12T04:00:08.845Z,5.18
2023-04-12T04:03:15.902Z,5.70
2023-04-12T04:05:55.168Z,5.10
2023-04-12T04:08:22.656Z,4.75
2023-04-12T04:10:53.470Z,4.70
2023-04-12T04:13:24.868Z,4.00
2023-04-12T04:16:04.936Z,3.80
2023-04-12T04:18:34.713Z,3.65
2023-04-12T04:21:02.617Z,3.80
2023-04-12T04:23:38.907Z,3.97
2023-04-12T04:26:10.686Z,4.57
2023-04-12T04:28:47.690Z,4.60
2023-04-12T04:31:34.774Z,4.75
2023-04-12T04:34:06.775Z,4.53
2023-04-12T04:36:41.732Z,4.40
2023-04-12T04:39:09.856Z,4.40
2023-04-12T04:41:41.628Z,4.50
2023-04-12T04:44:35.268Z,4.90
2023-04-12T04:47:06.868Z,5.03
2023-04-12T04:49:34.015Z,4.30
2023-04-12T04:52:09.869Z,4.18
2023-04-12T04:54:37.289Z,4.70
2023-04-12T04:57:14.947Z,4.82
2023-04-12T04:59:41.925Z,4.80
2023-04-12T05:02:17.597Z,4.72
2023-04-12T05:04:45.556Z,5.18
2023-04-12T05:07:16.046Z,5.30
2023-04-12T05:09:45.888Z,4.70
2023-04-12T05:12:13.138Z,5.43
2023-04-12T05:14:48.090Z,4.90
2023-04-12T05:17:18.620Z,4.75
2023-04-12T05:19:45.757Z,5.47
2023-04-12T05:22:14.078Z,5.35
2023-04-12T05:24:41.360Z,6.10
2023-04-12T05:27:08.958Z,7.75
2023-04-12T05:29:36.072Z,7.00
2023-04-12T05:32:04.628Z,7.95
2023-04-12T05:34:31.622Z,7.10
2023-04-12T05:37:00.049Z,8.77
2023-04-12T05:39:33.806Z,8.52
2023-04-12T05:42:01.374Z,8.65
2023-04-12T05:44:28.617Z,8.43
2023-04-12T05:46:55.856Z,8.88
2023-04-12T05:49:22.912Z,8.63
2023-04-12T05:51:50.394Z,8.55
2023-04-12T05:54:21.227Z,8.57
2023-04-12T05:56:51.865Z,8.50
2023-04-12T05:59:19.751Z,9.88
2023-04-12T06:01:47.065Z,8.70
2023-04-12T06:04:15.478Z,9.45
2023-04-12T06:06:43.663Z,9.80
2023-04-12T06:09:11.017Z,10.25
2023-04-12T06:11:39.184Z,11.27
2023-04-12T06:14:06.396Z,11.00
2023-04-12T06:16:33.452Z,10.80
2023-04-12T06:19:00.622Z,10.52
2023-04-12T06:21:28.298Z,10.90
2023-04-12T06:23:55.452Z,11.30
2023-04-12T06:26:22.445Z,9.98
2023-04-12T06:28:49.290Z,9.55
2023-04-12T06:31:17.277Z,9.57
2023-04-12T06:33:45.175Z,9.75
2023-04-12T06:36:12.521Z,9.43
2023-04-12T06:38:39.515Z,9.75
2023-04-12T06:41:06.981Z,8.30
2023-04-12T06:43:33.757Z,7.80
2023-04-12T06:46:02.933Z,7.22
2023-04-12T06:48:30.054Z,7.43
2023-04-12T06:50:57.002Z,6.25
2023-04-12T06:53:23.856Z,6.22
2023-04-12T06:55:51.139Z,5.70
2023-04-12T06:58:18.097Z,5.00
2023-04-12T07:00:44.925Z,5.22
2023-04-12T07:03:11.837Z,3.90
2023-04-12T07:05:39.305Z,3.78
2023-04-12T07:08:07.765Z,3.43
2023-04-12T07:10:36.034Z,3.33
2023-04-12T07:13:07.041Z,3.10
2023-04-12T07:15:34.250Z,3.08
2023-04-12T07:18:01.067Z,3.10
2023-04-12T07:20:28.005Z,2.70
2023-04-12T07:22:54.796Z,2.50
2023-04-12T07:25:21.888Z,2.67
2023-04-12T07:27:50.572Z,2.30
2023-04-12T07:30:18.667Z,2.85
2023-04-12T07:32:45.867Z,1.90
2023-04-12T07:35:12.807Z,1.97
2023-04-12T07:37:39.728Z,2.10
2023-04-12T07:40:07.388Z,1.55
2023-04-12T07:42:34.251Z,1.70
2023-04-12T07:45:01.593Z,1.55
2023-04-12T07:47:28.647Z,1.60
2023-04-12T07:49:55.543Z,1.55
2023-04-12T07:52:22.304Z,1.52
2023-04-12T07:54:49.098Z,1.40
2023-04-12T07:57:15.988Z,1.63
2023-04-12T07:59:42.771Z,1.30
2023-04-12T08:02:09.598Z,1.55
2023-04-12T08:04:36.539Z,1.45
2023-04-12T08:07:03.706Z,1.33
2023-04-12T08:09:30.808Z,1.15
2023-04-12T08:11:58.208Z,1.02
2023-04-12T08:14:25.331Z,1.23
2023-04-12T08:16:52.065Z,0.90
2023-04-12T08:19:20.281Z,1.05
2023-04-12T08:24:13.739Z,1.27
2023-04-12T08:26:41.058Z,0.90
2023-04-12T08:29:07.916Z,1.07
2023-04-12T08:31:34.760Z,1.00
2023-04-12T08:34:01.685Z,0.90
2023-04-12T08:36:28.867Z,1.02
2023-04-12T08:39:01.976Z,1.15
2023-04-12T08:41:28.943Z,1.10
2023-04-12T08:43:56.327Z,1.00
2023-04-12T08:46:23.607Z,0.98
2023-04-12T08:48:56.414Z,0.90
2023-04-12T08:51:23.680Z,0.77
2023-04-12T08:53:51.157Z,1.05
2023-04-12T08:56:18.645Z,1.20
2023-04-12T08:58:49.066Z,1.05
2023-04-12T09:01:17.449Z,1.23
2023-04-12T09:06:12.854Z,0.77
2023-04-12T09:08:53.725Z,0.93
2023-04-12T09:11:24.792Z,1.10
2023-04-12T09:13:52.535Z,1.10
2023-04-12T09:16:37.767Z,1.27
2023-04-12T09:19:05.520Z,0.70
2023-04-12T09:21:36.632Z,1.10
2023-04-12T09:24:14.936Z,1.23
2023-04-12T09:26:42.224Z,1.27
2023-04-12T09:29:24.574Z,1.27
2023-04-12T09:32:06.278Z,1.20
2023-04-12T09:34:35.839Z,1.27
2023-04-12T09:37:23.030Z,1.45
2023-04-12T09:40:01.118Z,1.08
2023-04-12T09:45:18.184Z,1.00
2023-04-12T09:47:45.247Z,0.80
2023-04-12T09:50:30.105Z,1.52
2023-04-12T09:52:58.426Z,0.95
2023-04-12T09:55:27.306Z,1.00
2023-04-12T09:57:55.570Z,1.10
2023-04-12T10:05:21.947Z,1.30
2023-04-12T10:07:50.062Z,1.15
2023-04-12T10:10:18.553Z,1.30
2023-04-12T10:12:46.986Z,1.35
2023-04-12T10:15:17.230Z,1.13
2023-04-12T10:18:03.022Z,1.15
2023-04-12T10:20:30.524Z,1.20
2023-04-12T10:23:01.130Z,1.40
2023-04-12T10:25:32.746Z,1.00
2023-04-12T10:28:14.894Z,1.60
2023-04-12T10:30:41.896Z,1.02
2023-04-12T10:33:14.000Z,1.10
2023-04-12T10:36:04.057Z,1.40
2023-04-12T10:38:44.475Z,1.48
2023-04-12T10:41:16.121Z,1.27
2023-04-12T10:43:52.713Z,1.40
2023-04-12T10:46:43.911Z,1.02
2023-04-12T10:49:11.557Z,1.00
2023-04-12T10:51:38.647Z,1.08
2023-04-12T10:54:17.782Z,1.00
2023-04-12T10:56:46.068Z,1.20
2023-04-12T10:59:18.387Z,1.23
2023-04-12T11:04:32.038Z,1.00
2023-04-12T11:07:11.180Z,0.95
2023-04-12T11:10:01.476Z,1.10
2023-04-12T11:12:35.090Z,1.35
2023-04-12T11:15:03.640Z,1.42
2023-04-12T11:17:42.914Z,0.88
2023-04-12T11:20:13.536Z,1.02
2023-04-12T11:22:40.963Z,1.60
2023-04-12T11:25:09.351Z,1.10
2023-04-12T11:27:38.017Z,1.10
2023-04-12T11:30:05.397Z,1.48
2023-04-12T11:32:35.662Z,1.13
2023-04-12T11:35:02.969Z,1.10
2023-04-12T11:37:35.803Z,1.05
2023-04-12T11:40:05.623Z,0.88
2023-04-12T11:42:33.249Z,1.00
2023-04-12T11:45:04.428Z,1.45
2023-04-12T11:47:41.904Z,1.25
2023-04-12T11:50:09.590Z,0.93
2023-04-12T11:52:36.552Z,1.30
2023-04-12T11:55:08.647Z,1.27
2023-04-12T11:57:35.626Z,1.08
2023-04-12T12:00:06.278Z,1.23
2023-04-12T12:02:49.008Z,0.90
2023-04-12T12:05:24.000Z,1.10
2023-04-12T12:07:52.839Z,1.33
2023-04-12T12:10:36.565Z,1.08
2023-04-12T12:13:12.077Z,1.38
2023-04-12T12:15:39.272Z,1.10
2023-04-12T12:18:09.822Z,1.13
2023-04-12T12:21:02.859Z,1.00
2023-04-12T12:23:33.524Z,1.05
2023-04-12T12:26:16.835Z,0.90
2023-04-12T12:28:52.857Z,1.13
2023-04-12T12:31:24.991Z,1.00
2023-04-12T12:33:57.308Z,1.05
2023-04-12T12:36:32.757Z,1.00
2023-04-12T12:39:07.052Z,1.08
2023-04-12T12:41:34.276Z,1.30
2023-04-12T12:44:01.002Z,0.85
2023-04-12T12:46:37.391Z,1.20
2023-04-12T12:49:15.298Z,1.23
2023-04-12T12:51:43.032Z,1.40
2023-04-12T12:54:09.870Z,0.85
2023-04-12T12:56:36.947Z,1.30
2023-04-12T12:59:03.844Z,1.25
2023-04-12T13:01:30.930Z,1.20
2023-04-12T13:03:58.993Z,1.10
2023-04-12T13:06:27.089Z,1.15
2023-04-12T13:08:55.202Z,1.17
2023-04-12T13:11:22.171Z,1.17
2023-04-12T13:13:49.109Z,0.95
2023-04-12T13:16:16.247Z,1.30
2023-04-12T13:18:43.961Z,1.17
2023-04-12T13:21:10.863Z,1.05
2023-04-12T13:23:37.731Z,1.25
2023-04-12T13:26:04.881Z,0.85
2023-04-12T13:28:32.034Z,1.30
2023-04-12T13:30:59.046Z,1.10
2023-04-12T13:33:26.002Z,1.08
2023-04-12T13:35:58.773Z,1.00
2023-04-12T13:38:25.730Z,1.02
2023-04-12T13:40:58.756Z,0.80
2023-04-12T13:43:34.721Z,0.90
2023-04-12T13:46:01.594Z,0.80
2023-04-12T13:48:28.939Z,0.80
2023-04-12T13:50:56.469Z,1.15
2023-04-12T13:53:23.487Z,1.10
2023-04-12T13:55:50.444Z,1.00
2023-04-12T13:58:18.702Z,1.00
2023-04-12T14:00:45.611Z,1.40
2023-04-12T14:03:12.599Z,0.85
2023-04-12T14:05:42.494Z,0.85
2023-04-12T14:08:09.518Z,0.90
2023-04-12T14:10:36.365Z,1.00
2023-04-12T14:13:03.570Z,0.95
2023-04-12T14:15:31.036Z,1.00
2023-04-12T14:17:58.164Z,1.00
2023-04-12T14:20:25.033Z,1.00
2023-04-12T14:22:51.879Z,1.33
2023-04-12T14:25:18.814Z,1.10
2023-04-12T14:27:45.668Z,1.40
2023-04-12T14:30:12.952Z,1.50
2023-04-12T14:32:47.174Z,1.73
2023-04-12T14:35:14.458Z,1.20
2023-04-12T14:37:41.325Z,1.45
2023-04-12T14:40:08.906Z,1.10
2023-04-12T14:42:35.744Z,1.30
2023-04-12T14:45:02.760Z,1.50
2023-04-12T14:47:29.793Z,1.40
2023-04-12T14:49:56.756Z,1.15
2023-04-12T14:52:23.777Z,1.50
2023-04-12T14:54:50.591Z,1.30
2023-04-12T14:57:17.653Z,1.23
2023-04-12T14:59:45.178Z,1.48
2023-04-12T15:02:12.143Z,1.30
2023-04-12T15:04:39.194Z,1.30
2023-04-12T15:07:07.969Z,1.52
2023-04-12T15:09:35.384Z,1.40
2023-04-12T15:12:02.155Z,1.50
2023-04-12T15:14:29.609Z,1.90
2023-04-12T15:16:57.121Z,1.67
2023-04-12T15:19:24.248Z,2.13
2023-04-12T15:21:52.500Z,1.83
2023-04-12T15:26:48.691Z,1.80
2023-04-12T15:29:16.704Z,1.95
2023-04-12T15:31:43.835Z,1.88
2023-04-12T15:34:13.313Z,2.15
2023-04-12T15:36:41.112Z,2.10
2023-04-12T15:39:08.129Z,1.92
2023-04-12T15:41:37.884Z,1.70
2023-04-12T15:44:09.279Z,2.08
2023-04-12T15:46:36.378Z,2.00
2023-04-12T15:49:03.931Z,1.98
2023-04-12T15:51:34.733Z,2.10
2023-04-12T15:54:02.207Z,1.90
2023-04-12T15:56:29.742Z,2.05
2023-04-12T15:58:57.791Z,2.88
2023-04-12T16:03:53.247Z,2.38
2023-04-12T16:08:48.545Z,2.95
2023-04-12T16:11:19.072Z,2.50
2023-04-12T16:13:48.489Z,2.88
2023-04-12T16:16:17.707Z,2.17
2023-04-12T16:18:45.545Z,1.90
2023-04-12T16:21:16.746Z,2.00
2023-04-12T16:23:44.349Z,2.00
2023-04-12T16:26:12.375Z,1.98
2023-04-12T16:31:10.611Z,1.60
2023-04-12T16:33:37.650Z,1.48
2023-04-12T16:36:04.747Z,1.60
2023-04-12T16:38:32.180Z,1.55
2023-04-12T16:40:59.314Z,1.40
2023-04-12T16:43:26.804Z,1.58
2023-04-12T16:45:53.676Z,1.60
2023-04-12T16:48:22.927Z,1.30
2023-04-12T16:50:50.144Z,1.30
2023-04-12T16:53:17.026Z,1.42
2023-04-12T16:55:45.086Z,1.30
2023-04-12T16:58:12.753Z,1.35
2023-04-12T17:00:39.971Z,1.60
2023-04-12T17:03:09.767Z,1.40
2023-04-12T17:05:38.425Z,1.67
2023-04-12T17:08:05.765Z,1.58
2023-04-12T17:10:33.638Z,1.47
2023-04-12T17:13:01.875Z,1.60
2023-04-12T17:15:29.874Z,1.80
2023-04-12T17:18:09.799Z,2.10
2023-04-12T17:20:37.376Z,1.83
2023-04-12T17:23:05.064Z,1.80
2023-04-12T17:25:32.296Z,1.98
2023-04-12T17:28:02.958Z,2.17
2023-04-12T17:30:30.879Z,2.00
2023-04-12T17:33:00.681Z,2.20
2023-04-12T17:35:28.239Z,2.05
2023-04-12T17:37:55.685Z,2.10
2023-04-12T17:40:22.709Z,2.00
2023-04-12T17:42:49.752Z,1.95
2023-04-12T17:45:18.430Z,3.05
2023-04-12T17:47:45.424Z,2.80
2023-04-12T17:50:12.901Z,2.13
2023-04-12T17:52:39.742Z,2.30
2023-04-12T17:55:09.357Z,2.63
2023-04-12T17:57:36.584Z,2.55
2023-04-12T18:00:11.805Z,2.63
2023-04-12T18:02:43.780Z,2.65
2023-04-12T18:05:12.256Z,2.47
2023-04-12T18:10:12.763Z,2.50
2023-04-12T18:12:40.985Z,2.20
2023-04-12T18:15:08.656Z,2.60
2023-04-12T18:17:35.827Z,2.60
2023-04-12T18:20:05.090Z,2.65
2023-04-12T18:22:32.135Z,2.83
2023-04-12T18:24:59.102Z,2.70
2023-04-12T18:27:26.208Z,2.67
2023-04-12T18:29:53.162Z,2.70
2023-04-12T18:32:20.297Z,3.17
2023-04-12T18:34:47.211Z,2.78
2023-04-12T18:37:14.155Z,2.70
2023-04-12T18:39:42.896Z,2.80
2023-04-12T18:42:10.589Z,2.78
2023-04-12T18:44:37.842Z,2.90
2023-04-12T18:47:04.834Z,2.80
2023-04-12T18:49:31.983Z,2.80
2023-04-12T18:51:58.945Z,2.85
2023-04-12T18:54:27.861Z,3.00
2023-04-12T18:56:54.950Z,3.08
2023-04-12T18:59:22.161Z,3.08
2023-04-12T19:01:49.347Z,3.17
2023-04-12T19:04:16.804Z,3.10
2023-04-12T19:06:45.110Z,3.03
2023-04-12T19:09:12.074Z,2.90
2023-04-12T19:11:39.214Z,3.13
2023-04-12T19:14:07.563Z,3.28
2023-04-12T19:16:36.116Z,3.00
2023-04-12T19:19:03.026Z,3.25
2023-04-12T19:21:29.934Z,3.17
2023-04-12T19:23:57.008Z,3.25
2023-04-12T19:26:23.986Z,3.13
2023-04-12T19:28:55.205Z,3.00
2023-04-12T19:31:23.540Z,2.85
2023-04-12T19:33:50.392Z,3.92
2023-04-12T19:36:17.253Z,2.90
2023-04-12T19:38:47.354Z,3.10
2023-04-12T19:41:16.124Z,2.80
2023-04-12T19:43:43.134Z,3.00
2023-04-12T19:46:10.205Z,2.90
2023-04-12T19:48:37.869Z,2.95
2023-04-12T19:51:05.375Z,3.08
2023-04-12T19:53:33.173Z,2.78
2023-04-12T19:56:00.763Z,2.58
2023-04-12T19:58:27.697Z,2.67
2023-04-12T20:00:55.023Z,2.80
2023-04-12T20:03:22.655Z,1.80
2023-04-12T20:05:49.531Z,2.55
2023-04-12T20:08:16.964Z,2.72
2023-04-12T20:10:43.802Z,2.30
2023-04-12T20:13:15.020Z,2.72
2023-04-12T20:15:44.759Z,2.40
2023-04-12T20:18:13.265Z,2.47
2023-04-12T20:20:44.068Z,2.67
2023-04-12T20:23:12.220Z,2.40
2023-04-12T20:25:41.558Z,2.47
2023-04-12T20:28:09.128Z,2.67
2023-04-12T20:30:36.695Z,3.15
2023-04-12T20:33:04.141Z,5.53
2023-04-12T20:35:31.362Z,2.95
2023-04-12T20:37:58.378Z,3.10
2023-04-12T20:40:27.870Z,3.13
2023-04-12T20:42:54.804Z,3.00
2023-04-12T20:45:22.126Z,3.60
2023-04-12T20:47:49.185Z,3.40
2023-04-12T20:50:17.522Z,3.70
2023-04-12T20:52:45.454Z,4.03
2023-04-12T20:55:13.970Z,4.05
2023-04-12T20:57:41.174Z,4.15
2023-04-12T21:00:18.833Z,4.28
2023-04-12T21:02:46.399Z,4.35
2023-04-12T21:05:16.764Z,4.20
2023-04-12T21:07:46.411Z,4.47
2023-04-12T21:10:13.895Z,4.57
2023-04-12T21:12:41.494Z,4.70
2023-04-12T21:15:09.262Z,4.95
2023-04-12T21:17:37.055Z,5.25
2023-04-12T21:20:13.692Z,5.15
2023-04-12T21:22:44.740Z,5.50
2023-04-12T21:25:15.999Z,4.82
2023-04-12T21:27:43.684Z,5.07
2023-04-12T21:30:13.986Z,5.50
2023-04-12T21:32:41.902Z,5.30
2023-04-12T21:35:10.177Z,5.35
2023-04-12T21:37:40.301Z,5.40
2023-04-12T21:40:09.282Z,5.43
2023-04-12T21:42:44.237Z,4.88
2023-04-12T21:45:13.672Z,6.35
2023-04-12T21:47:41.721Z,5.47
2023-04-12T21:50:09.862Z,6.05
2023-04-12T21:52:37.113Z,6.25
2023-04-12T21:55:07.395Z,6.37
2023-04-12T21:57:35.061Z,6.13
2023-04-12T22:00:04.745Z,6.30
2023-04-12T22:02:38.934Z,6.28
2023-04-12T22:05:06.784Z,6.45
2023-04-12T22:07:33.640Z,6.68
2023-04-12T22:10:01.958Z,5.95
2023-04-12T22:12:28.814Z,5.97
2023-04-12T22:14:57.667Z,6.45
2023-04-12T22:17:24.752Z,6.47
2023-04-12T22:19:56.420Z,6.78
2023-04-12T22:22:24.394Z,6.45
2023-04-12T22:24:52.736Z,7.30
2023-04-12T22:27:19.695Z,7.40
2023-04-12T22:29:47.774Z,7.55
2023-04-12T22:32:14.523Z,6.93
2023-04-12T22:34:41.295Z,7.57
2023-04-12T22:37:08.672Z,7.78
2023-04-12T22:39:35.673Z,7.57
2023-04-12T22:42:04.047Z,8.25
2023-04-12T22:44:38.095Z,7.95
2023-04-12T22:47:08.715Z,8.00
2023-04-12T22:49:45.238Z,7.78
2023-04-12T22:52:13.513Z,7.60
2023-04-12T22:54:40.362Z,8.45
2023-04-12T22:57:07.450Z,8.60
2023-04-12T22:59:34.825Z,8.85
2023-04-12T23:02:02.236Z,8.73
2023-04-12T23:04:29.109Z,9.07
2023-04-12T23:06:56.151Z,8.98
2023-04-12T23:09:23.623Z,9.45
2023-04-12T23:11:51.581Z,9.48
2023-04-12T23:14:18.634Z,10.00
2023-04-12T23:16:46.149Z,9.68
2023-04-12T23:19:16.843Z,9.98
2023-04-12T23:21:43.829Z,9.27
2023-04-12T23:24:16.169Z,8.80
2023-04-12T23:26:45.081Z,9.18
2023-04-12T23:29:12.661Z,9.43
2023-04-12T23:31:41.456Z,8.48
2023-04-12T23:34:08.249Z,8.55
2023-04-12T23:36:36.659Z,9.02
2023-04-12T23:39:08.429Z,9.15
2023-04-12T23:41:35.349Z,9.48
2023-04-12T23:44:02.258Z,9.75
2023-04-12T23:46:29.142Z,10.65
2023-04-12T23:48:56.498Z,9.80
2023-04-12T23:51:23.501Z,11.90
2023-04-12T23:53:50.520Z,12.20
2023-04-12T23:56:17.487Z,12.20
2023-04-12T23:58:44.551Z,12.40
